Time;durP1;ratioP1;P1;durP2;ratioP2;P2;SDS_P1;SDS_P2;PMS_P1;PMS_P2;Temp;Humidity;BMP_temperature;BMP_pressure;BME280_temperature;BME280_humidity;BME280_pressure;Samples;Min_cycle;Max_cycle;Signal;HPM_P1;HPM_P2
2020/12/26 00:02:01;;;;;;;21.33;12.52;;;;;;;4.72;99.58;100358.44;5071202;28;20039;-64
2020/12/26 00:04:27;;;;;;;19.50;12.05;;;;;;;4.83;99.79;100393.13;5071239;28;20063;-64
2020/12/26 00:06:53;;;;;;;20.15;10.98;;;;;;;4.79;99.84;100378.34;5068914;28;20039;-64
2020/12/26 00:09:18;;;;;;;18.60;10.98;;;;;;;4.83;99.20;100377.19;5050536;28;20056;-64
2020/12/26 00:11:44;;;;;;;18.35;10.82;;;;;;;4.73;99.19;100362.78;5051201;28;20055;-64
2020/12/26 00:14:10;;;;;;;17.25;11.32;;;;;;;4.78;99.27;100371.31;5031647;28;20041;-64
2020/12/26 00:16:35;;;;;;;19.63;11.50;;;;;;;4.75;99.29;100369.69;5050822;28;20033;-64
2020/12/26 00:19:01;;;;;;;16.75;10.40;;;;;;;4.72;99.38;100377.03;5050652;28;20056;-64
2020/12/26 00:21:26;;;;;;;16.40;10.20;;;;;;;4.74;99.28;100391.91;5050879;28;20154;-64
2020/12/26 00:23:51;;;;;;;17.67;10.80;;;;;;;4.70;99.20;100392.19;5050766;28;20029;-64
2020/12/26 00:26:17;;;;;;;18.50;9.85;;;;;;;4.69;99.39;100393.16;5050996;28;20047;-64
2020/12/26 00:28:44;;;;;;;17.05;10.23;;;;;;;4.80;98.85;100401.28;5050813;28;20687;-64
2020/12/26 00:31:17;;;;;;;20.70;11.43;;;;;;;4.93;97.14;100417.31;5050326;28;20086;-64
2020/12/26 00:33:42;;;;;;;36.10;16.08;;;;;;;5.00;96.38;100411.50;5029710;28;20033;-64
2020/12/26 00:36:08;;;;;;;43.47;19.08;;;;;;;4.95;96.44;100426.91;5050015;28;20028;-64
2020/12/26 00:38:33;;;;;;;25.38;15.38;;;;;;;5.03;96.58;100440.53;5050096;28;20373;-64
2020/12/26 00:40:59;;;;;;;30.27;15.48;;;;;;;4.97;96.89;100434.78;5050528;28;20104;-66
2020/12/26 00:43:24;;;;;;;29.58;15.85;;;;;;;4.92;97.75;100447.50;5050617;28;20491;-65
2020/12/26 00:45:50;;;;;;;31.00;15.50;;;;;;;4.85;98.45;100444.38;5050010;28;20025;-64
2020/12/26 00:48:15;;;;;;;25.05;14.55;;;;;;;4.89;98.62;100466.28;5050080;28;20067;-65
2020/12/26 00:50:41;;;;;;;21.83;12.13;;;;;;;4.69;97.48;100427.69;5046746;28;20229;-65
2020/12/26 00:53:06;;;;;;;21.30;12.82;;;;;;;4.94;97.57;100473.03;5030577;28;20402;-64
2020/12/26 00:55:32;;;;;;;19.95;11.77;;;;;;;4.90;97.72;100470.66;5049592;28;20025;-64
2020/12/26 00:57:57;;;;;;;22.52;11.38;;;;;;;4.85;97.61;100465.63;5049354;28;20073;-64
2020/12/26 01:00:23;;;;;;;19.08;11.35;;;;;;;5.07;96.18;100489.94;5047291;28;20040;-64
2020/12/26 01:02:49;;;;;;;17.10;9.90;;;;;;;5.11;96.02;100491.44;5050426;28;20024;-65
2020/12/26 01:05:14;;;;;;;16.48;10.48;;;;;;;5.13;95.81;100486.88;5030020;28;20083;-64
2020/12/26 01:07:39;;;;;;;18.23;10.63;;;;;;;5.19;95.59;100486.47;5053759;28;20039;-64
2020/12/26 01:10:05;;;;;;;18.40;11.30;;;;;;;5.19;95.21;100494.44;5054593;28;20044;-64
2020/12/26 01:12:31;;;;;;;17.08;10.65;;;;;;;5.14;95.64;100491.25;5054057;28;20111;-64
2020/12/26 01:14:57;;;;;;;20.83;11.25;;;;;;;5.04;95.69;100479.47;5053983;28;20100;-65
2020/12/26 01:17:23;;;;;;;18.38;10.75;;;;;;;5.16;95.85;100496.47;5053610;28;20037;-65
2020/12/26 01:19:48;;;;;;;17.90;11.18;;;;;;;5.18;96.14;100508.72;5053223;28;20083;-65
2020/12/26 01:22:14;;;;;;;19.85;9.95;;;;;;;5.15;96.05;100497.41;5053634;28;20039;-64
2020/12/26 01:24:41;;;;;;;17.85;10.43;;;;;;;5.14;95.99;100501.00;5053424;28;20104;-65
2020/12/26 01:27:07;;;;;;;19.60;11.88;;;;;;;5.10;96.11;100507.47;5053348;28;20020;-64
2020/12/26 01:29:34;;;;;;;17.88;11.25;;;;;;;5.10;96.23;100510.13;5053228;28;20036;-65
2020/12/26 01:31:59;;;;;;;20.50;12.07;;;;;;;5.05;95.87;100493.59;5052889;28;20083;-65
2020/12/26 01:34:25;;;;;;;25.25;13.95;;;;;;;5.08;96.77;100504.06;5052942;28;20028;-65
2020/12/26 01:36:54;;;;;;;25.88;15.05;;;;;;;5.05;96.79;100512.22;5053048;28;20081;-65
2020/12/26 01:39:21;;;;;;;25.10;13.90;;;;;;;5.12;96.38;100514.41;5053123;28;20033;-65
2020/12/26 01:41:50;;;;;;;23.42;12.82;;;;;;;5.13;96.94;100508.16;5052139;28;20119;-65
2020/12/26 01:44:16;;;;;;;25.58;13.95;;;;;;;5.07;97.51;100500.56;5053097;28;20440;-65
2020/12/26 01:46:42;;;;;;;25.75;15.05;;;;;;;5.08;97.82;100496.94;5052992;28;20036;-65
2020/12/26 01:49:09;;;;;;;23.88;13.45;;;;;;;5.07;97.88;100495.25;5052576;28;20111;-65
2020/12/26 01:51:34;;;;;;;24.10;15.07;;;;;;;5.05;98.04;100482.97;5052921;28;20021;-65
2020/12/26 01:54:01;;;;;;;27.25;15.65;;;;;;;5.00;99.26;100485.09;5052528;28;20021;-65
2020/12/26 01:56:28;;;;;;;27.98;16.20;;;;;;;4.97;99.02;100477.31;5052397;28;20075;-67
2020/12/26 01:58:53;;;;;;;28.65;17.33;;;;;;;5.05;99.10;100489.16;5051995;28;20025;-66
2020/12/26 02:01:31;;;;;;;30.08;16.38;;;;;;;5.05;100.00;100493.59;5059943;28;20059;-66
2020/12/26 02:03:56;;;;;;;27.58;16.17;;;;;;;5.04;100.00;100482.13;5071415;28;20024;-67
2020/12/26 02:06:22;;;;;;;27.77;16.25;;;;;;;5.00;100.00;100471.78;5052376;28;20025;-65
2020/12/26 02:08:47;;;;;;;31.45;17.70;;;;;;;5.05;100.00;100483.84;5052329;28;20514;-65
2020/12/26 02:11:13;;;;;;;27.02;17.25;;;;;;;5.02;100.00;100468.09;5051076;28;20037;-65
2020/12/26 02:13:40;;;;;;;27.85;16.38;;;;;;;5.06;100.00;100477.56;5051422;28;20044;-65
2020/12/26 02:16:08;;;;;;;26.73;17.23;;;;;;;5.15;100.00;100477.00;5052118;28;20095;-65
2020/12/26 02:18:34;;;;;;;31.48;18.25;;;;;;;5.14;100.00;100469.13;5050894;28;20032;-65
2020/12/26 02:21:01;;;;;;;30.15;17.55;;;;;;;5.00;100.00;100448.72;5038776;28;20082;-65
2020/12/26 02:23:27;;;;;;;32.70;19.60;;;;;;;5.12;100.00;100473.69;5051864;28;20029;-65
2020/12/26 02:25:56;;;;;;;28.73;17.85;;;;;;;5.09;100.00;100468.56;5051878;28;20055;-65
2020/12/26 02:28:22;;;;;;;28.25;17.35;;;;;;;5.10;100.00;100462.28;5037995;28;20037;-65
2020/12/26 02:30:48;;;;;;;30.30;17.63;;;;;;;5.09;100.00;100464.09;5050834;28;20120;-65
2020/12/26 02:33:15;;;;;;;27.95;17.25;;;;;;;5.05;100.00;100459.06;5050853;28;20144;-65
2020/12/26 02:35:40;;;;;;;26.83;17.77;;;;;;;5.06;100.00;100466.09;5050656;28;20109;-65
2020/12/26 02:38:06;;;;;;;28.95;17.25;;;;;;;5.08;100.00;100466.84;5051143;28;20374;-65
2020/12/26 02:40:31;;;;;;;26.38;16.38;;;;;;;5.12;100.00;100458.56;5051138;28;20028;-65
2020/12/26 02:42:57;;;;;;;28.67;16.38;;;;;;;5.19;100.00;100465.22;5051822;28;20028;-65
2020/12/26 02:45:23;;;;;;;25.00;16.05;;;;;;;5.14;100.00;100464.66;5051721;28;20025;-65
2020/12/26 02:47:48;;;;;;;24.60;15.20;;;;;;;5.12;100.00;100469.22;5050990;28;20040;-65
2020/12/26 02:50:13;;;;;;;21.63;14.60;;;;;;;4.96;100.00;100444.53;5051847;28;20033;-65
2020/12/26 02:52:39;;;;;;;22.10;14.77;;;;;;;5.05;100.00;100461.72;5051147;28;20025;-64
2020/12/26 02:55:04;;;;;;;21.65;13.85;;;;;;;5.08;100.00;100481.00;5050124;28;20039;-65
2020/12/26 02:57:30;;;;;;;21.75;14.05;;;;;;;5.10;100.00;100468.47;5032409;28;20063;-65
2020/12/26 02:59:55;;;;;;;23.40;14.18;;;;;;;5.02;100.00;100445.97;5053731;28;20021;-65
2020/12/26 03:02:21;;;;;;;21.48;13.98;;;;;;;5.10;100.00;100464.94;5053623;28;20078;-65
2020/12/26 03:04:46;;;;;;;20.23;13.50;;;;;;;5.07;100.00;100475.78;5055969;28;20104;-65
2020/12/26 03:07:11;;;;;;;20.50;12.60;;;;;;;5.05;100.00;100475.88;5068259;28;20024;-65
2020/12/26 03:09:37;;;;;;;24.95;15.10;;;;;;;4.93;100.00;100460.69;5056624;28;20048;-65
2020/12/26 03:12:02;;;;;;;21.90;14.52;;;;;;;4.99;100.00;100470.09;5067022;28;20034;-65
2020/12/26 03:14:28;;;;;;;22.35;12.57;;;;;;;5.04;100.00;100478.63;5059829;28;20064;-65
2020/12/26 03:16:53;;;;;;;21.92;12.75;;;;;;;4.99;100.00;100473.59;5067524;28;20353;-65
2020/12/26 03:19:18;;;;;;;25.63;13.82;;;;;;;5.00;100.00;100485.91;5055125;28;20679;-65
2020/12/26 03:21:44;;;;;;;21.30;13.55;;;;;;;5.02;100.00;100486.69;5066208;28;20031;-65
2020/12/26 03:24:09;;;;;;;22.63;12.98;;;;;;;5.08;100.00;100499.59;5061070;28;20034;-65
2020/12/26 03:26:35;;;;;;;21.27;13.50;;;;;;;5.07;100.00;100484.63;5058845;28;20042;-65
2020/12/26 03:29:00;;;;;;;20.23;12.80;;;;;;;4.97;100.00;100458.69;5067107;28;20039;-65
2020/12/26 03:31:26;;;;;;;19.63;13.15;;;;;;;5.04;100.00;100482.13;5055206;28;20032;-65
2020/12/26 03:33:51;;;;;;;21.77;13.20;;;;;;;5.02;100.00;100478.72;5065016;28;20078;-65
2020/12/26 03:36:17;;;;;;;20.98;13.10;;;;;;;5.02;100.00;100483.16;5061784;28;20033;-65
2020/12/26 03:38:42;;;;;;;19.38;12.65;;;;;;;5.00;100.00;100488.56;5057568;28;20104;-65
2020/12/26 03:41:08;;;;;;;26.02;14.70;;;;;;;4.99;100.00;100480.72;5067403;28;20032;-65
2020/12/26 03:43:33;;;;;;;23.10;14.80;;;;;;;4.96;100.00;100478.25;5066834;28;20021;-65
2020/12/26 03:45:59;;;;;;;21.33;13.68;;;;;;;4.98;100.00;100489.63;5059321;28;20020;-65
2020/12/26 03:48:24;;;;;;;22.27;14.32;;;;;;;4.98;100.00;100479.88;5060248;28;20103;-66
2020/12/26 03:50:50;;;;;;;28.63;13.93;;;;;;;4.91;100.00;100473.22;5066092;28;20028;-65
2020/12/26 03:53:15;;;;;;;24.98;15.52;;;;;;;4.88;100.00;100478.72;5054831;28;20033;-67
2020/12/26 03:55:41;;;;;;;22.25;13.65;;;;;;;4.83;100.00;100470.19;5065705;28;20025;-67
2020/12/26 03:58:06;;;;;;;21.25;14.10;;;;;;;4.84;100.00;100466.59;5060077;28;20024;-67
2020/12/26 04:00:31;;;;;;;21.42;14.20;;;;;;;4.80;100.00;100465.06;5058614;28;20366;-66
2020/12/26 04:02:57;;;;;;;25.08;14.80;;;;;;;4.78;100.00;100464.31;5043402;28;20044;-67
2020/12/26 04:05:22;;;;;;;22.65;14.73;;;;;;;4.75;100.00;100467.16;5035872;28;20052;-67
2020/12/26 04:07:48;;;;;;;26.75;15.07;;;;;;;4.73;100.00;100461.94;5064425;28;20037;-67
2020/12/26 04:10:13;;;;;;;23.50;15.20;;;;;;;4.53;100.00;100424.25;5060619;28;20498;-66
2020/12/26 04:12:39;;;;;;;26.20;15.73;;;;;;;4.66;100.00;100449.13;5057459;28;20377;-66
2020/12/26 04:15:04;;;;;;;24.40;14.70;;;;;;;4.48;100.00;100432.50;5067297;28;20112;-67
2020/12/26 04:17:32;;;;;;;22.88;14.25;;;;;;;4.49;100.00;100438.69;5054569;28;20060;-67
2020/12/26 04:19:58;;;;;;;23.42;14.90;;;;;;;4.52;100.00;100463.22;5064721;28;20306;-66
2020/12/26 04:22:23;;;;;;;22.75;14.60;;;;;;;4.61;100.00;100506.97;5064850;28;20064;-66
2020/12/26 04:24:49;;;;;;;22.17;13.93;;;;;;;4.55;100.00;100516.16;5062902;28;20020;-67
2020/12/26 04:27:14;;;;;;;24.58;14.57;;;;;;;4.51;100.00;100527.91;5053892;28;20036;-66
2020/12/26 04:29:39;;;;;;;22.25;14.02;;;;;;;4.38;100.00;100510.16;5065334;28;20650;-67
2020/12/26 04:32:05;;;;;;;23.95;13.98;;;;;;;4.55;100.00;100533.91;5041260;28;20063;-67
2020/12/26 04:34:30;;;;;;;21.52;14.00;;;;;;;4.50;100.00;100535.97;5066873;28;20040;-67
2020/12/26 04:36:56;;;;;;;21.65;13.63;;;;;;;4.46;100.00;100523.84;5054399;28;20048;-67
2020/12/26 04:39:21;;;;;;;20.80;13.10;;;;;;;4.56;100.00;100548.91;5066248;28;20033;-67
2020/12/26 04:41:47;;;;;;;26.48;13.60;;;;;;;4.58;99.88;100560.31;5055989;28;20025;-67
2020/12/26 04:44:14;;;;;;;21.90;13.82;;;;;;;4.43;100.00;100553.22;5055234;28;20588;-67
2020/12/26 04:46:42;;;;;;;22.70;13.30;;;;;;;4.39;100.00;100562.31;5050059;28;20128;-67
2020/12/26 04:49:09;;;;;;;22.20;13.38;;;;;;;4.45;99.62;100560.16;5053316;28;20028;-67
2020/12/26 04:51:37;;;;;;;21.13;13.35;;;;;;;4.39;100.00;100552.53;5050194;28;20488;-67
2020/12/26 04:54:08;;;;;;;25.50;13.85;;;;;;;4.34;100.00;100543.13;5050012;28;20021;-67
2020/12/26 04:56:40;;;;;;;21.35;13.02;;;;;;;4.33;100.00;100541.44;5047466;28;20033;-67
2020/12/26 04:59:07;;;;;;;23.05;13.77;;;;;;;4.35;100.00;100540.41;5049923;28;20087;-67
2020/12/26 05:01:36;;;;;;;22.85;12.68;;;;;;;4.43;100.00;100553.22;5047649;28;20037;-67
2020/12/26 05:04:02;;;;;;;19.83;13.20;;;;;;;4.42;100.00;100562.16;5048469;28;20028;-67
2020/12/26 05:06:30;;;;;;;21.05;13.43;;;;;;;4.46;99.67;100583.09;5049929;28;20405;-67
2020/12/26 05:08:56;;;;;;;22.52;13.93;;;;;;;4.47;99.52;100578.66;5051074;28;20481;-66
2020/12/26 05:11:21;;;;;;;21.65;13.52;;;;;;;4.47;99.31;100583.97;5055125;28;20079;-67
2020/12/26 05:13:47;;;;;;;19.73;12.88;;;;;;;4.42;99.39;100592.19;5051352;28;20033;-66
2020/12/26 05:16:12;;;;;;;22.00;12.73;;;;;;;4.40;99.19;100598.53;5049095;28;20099;-66
2020/12/26 05:18:38;;;;;;;22.75;12.63;;;;;;;4.37;99.10;100596.06;5049433;28;20027;-66
2020/12/26 05:21:03;;;;;;;21.40;13.18;;;;;;;4.29;99.28;100596.50;5049371;28;20074;-66
2020/12/26 05:23:29;;;;;;;18.33;12.43;;;;;;;4.32;99.26;100603.47;5050211;28;20048;-65
2020/12/26 05:25:54;;;;;;;23.90;14.02;;;;;;;4.24;99.33;100605.69;5049687;28;20047;-65
2020/12/26 05:28:22;;;;;;;20.98;12.93;;;;;;;4.24;99.72;100609.19;5049821;28;20056;-65
2020/12/26 05:30:51;;;;;;;20.83;12.65;;;;;;;4.22;99.56;100616.38;5049725;28;20059;-65
2020/12/26 05:33:17;;;;;;;22.05;12.27;;;;;;;4.21;99.69;100627.09;5049088;28;20039;-65
2020/12/26 05:35:44;;;;;;;20.58;12.68;;;;;;;4.20;99.72;100628.03;5049330;28;20377;-65
2020/12/26 05:38:16;;;;;;;19.10;12.05;;;;;;;4.21;99.59;100637.72;5049486;28;20092;-65
2020/12/26 05:40:43;;;;;;;19.23;10.90;;;;;;;4.23;99.51;100644.63;5049568;28;20453;-65
2020/12/26 05:43:10;;;;;;;22.15;12.82;;;;;;;4.21;99.27;100650.97;5050269;28;20135;-65
2020/12/26 05:45:39;;;;;;;19.60;12.32;;;;;;;4.19;99.29;100663.47;5049631;28;20063;-65
2020/12/26 05:48:09;;;;;;;19.52;11.88;;;;;;;4.13;99.49;100663.84;5049742;28;20032;-65
2020/12/26 05:50:35;;;;;;;16.17;11.20;;;;;;;4.16;99.71;100666.31;5047558;28;20082;-65
2020/12/26 05:53:01;;;;;;;20.30;11.98;;;;;;;4.17;99.63;100668.03;5051015;28;20063;-65
2020/12/26 05:55:36;;;;;;;17.88;11.35;;;;;;;4.12;99.34;100662.09;5056560;28;20033;-65
2020/12/26 05:58:02;;;;;;;19.00;11.93;;;;;;;4.05;99.02;100660.75;5065111;28;20097;-65
2020/12/26 06:00:34;;;;;;;18.52;11.48;;;;;;;4.01;98.95;100653.91;5065009;28;20103;-65
2020/12/26 06:03:19;;;;;;;17.35;10.65;;;;;;;4.12;98.55;100688.66;5056882;28;20036;-65
2020/12/26 06:05:47;;;;;;;16.52;10.38;;;;;;;4.10;98.54;100696.69;5057386;28;20022;-65
2020/12/26 06:08:14;;;;;;;15.70;10.88;;;;;;;4.03;98.66;100692.66;5063551;28;20048;-65
2020/12/26 06:10:41;;;;;;;18.35;10.23;;;;;;;4.11;98.48;100709.03;5066582;28;20463;-65
2020/12/26 06:13:09;;;;;;;19.08;10.40;;;;;;;4.05;98.38;100690.81;5056219;28;20032;-65
2020/12/26 06:15:36;;;;;;;19.17;10.98;;;;;;;4.15;98.50;100721.19;5067735;28;20055;-65
2020/12/26 06:18:06;;;;;;;16.75;10.60;;;;;;;4.04;98.66;100712.13;5043264;28;20025;-65
2020/12/26 06:20:32;;;;;;;17.25;10.43;;;;;;;4.09;98.56;100715.34;5060156;28;20040;-65
2020/12/26 06:22:58;;;;;;;16.48;9.77;;;;;;;4.08;98.47;100719.81;5068884;28;20021;-65
2020/12/26 06:25:23;;;;;;;16.85;10.32;;;;;;;4.11;98.30;100729.41;5046347;28;20037;-65
2020/12/26 06:27:52;;;;;;;18.88;11.07;;;;;;;4.19;97.67;100748.41;5046187;28;20036;-66
2020/12/26 06:30:20;;;;;;;18.52;10.93;;;;;;;4.06;97.52;100744.72;5056230;28;20067;-66
2020/12/26 06:32:47;;;;;;;17.05;11.55;;;;;;;4.13;97.91;100765.53;5036862;28;20144;-66
2020/12/26 06:35:13;;;;;;;19.70;11.52;;;;;;;4.19;97.53;100765.19;5054925;28;20399;-67
2020/12/26 06:37:39;;;;;;;18.13;10.73;;;;;;;4.20;97.39;100776.69;5055356;28;20111;-67
2020/12/26 06:40:31;;;;;;;20.98;11.95;;;;;;;4.12;97.54;100774.44;5065473;28;20055;-67
2020/12/26 06:42:57;;;;;;;19.88;12.15;;;;;;;4.09;97.86;100779.06;5050599;28;20666;-67
2020/12/26 06:45:49;;;;;;;21.73;11.95;;;;;;;4.07;97.29;100786.25;5048661;28;20045;-67
2020/12/26 06:48:33;;;;;;;23.27;13.02;;;;;;;4.07;97.95;100784.44;5049112;28;20068;-67
2020/12/26 06:51:18;;;;;;;;;;;;;;;4.07;97.53;100784.44;5049162;28;20037;-67
2020/12/26 06:53:44;;;;;;;;;;;;;;;4.11;96.87;100790.44;5057333;28;19916;-67
2020/12/26 06:56:09;;;;;;;30.75;15.70;;;;;;;4.10;96.57;100796.72;5042920;28;19916;-67
2020/12/26 06:58:35;;;;;;;28.10;15.90;;;;;;;4.06;96.96;100792.47;5049439;28;20390;-66
2020/12/26 07:01:00;;;;;;;30.30;16.00;;;;;;;4.00;97.53;100795.50;5065580;28;20044;-67
2020/12/26 07:03:31;;;;;;;27.75;14.43;;;;;;;3.99;97.63;100801.72;5065830;28;20083;-66
2020/12/26 07:05:57;;;;;;;21.25;12.38;;;;;;;4.00;97.82;100806.09;5050134;28;20079;-66
2020/12/26 07:08:33;;;;;;;22.10;13.07;;;;;;;4.01;97.74;100802.50;5060951;28;20079;-67
2020/12/26 07:11:23;;;;;;;21.80;11.75;;;;;;;4.01;97.83;100802.50;5051273;28;20045;-67
2020/12/26 07:13:50;;;;;;;20.40;12.60;;;;;;;3.96;97.61;100780.66;5036400;28;20037;-67
2020/12/26 07:16:35;;;;;;;23.40;12.95;;;;;;;4.07;97.50;100784.44;5040851;28;20163;-67
2020/12/26 07:19:19;;;;;;;22.20;13.27;;;;;;;4.16;96.77;100785.78;5053526;28;20037;-67
2020/12/26 07:21:46;;;;;;;21.92;13.68;;;;;;;4.09;96.75;100769.31;5054003;28;20080;-67
2020/12/26 07:24:24;;;;;;;20.67;13.02;;;;;;;4.19;96.47;100790.88;5040555;28;20038;-68
2020/12/26 07:26:51;;;;;;;27.15;13.02;;;;;;;4.16;96.08;100785.78;5049224;28;20079;-67
2020/12/26 07:29:27;;;;;;;20.83;12.13;;;;;;;4.24;96.11;100795.03;5066810;28;20048;-67
2020/12/26 07:31:54;;;;;;;19.77;11.43;;;;;;;4.27;95.56;100802.81;5038848;28;20778;-66
2020/12/26 07:34:36;;;;;;;18.70;10.90;;;;;;;4.30;95.59;100792.03;5059009;28;20053;-67
2020/12/26 07:37:02;;;;;;;16.02;9.80;;;;;;;4.21;94.61;100768.66;5066375;28;20094;-67
2020/12/26 07:39:28;;;;;;;15.77;10.05;;;;;;;4.33;94.09;100785.69;5051121;28;20082;-66
2020/12/26 07:41:55;;;;;;;14.88;9.50;;;;;;;4.23;93.32;100756.13;5036868;28;20496;-66
2020/12/26 07:44:25;;;;;;;21.35;11.30;;;;;;;4.24;91.99;100762.31;5061484;28;20099;-66
2020/12/26 07:46:52;;;;;;;20.13;10.15;;;;;;;4.12;91.20;100736.41;5064044;28;20047;-66
2020/12/26 07:49:18;;;;;;;18.48;10.43;;;;;;;4.37;91.07;100792.53;5052680;28;20453;-67
2020/12/26 07:51:59;;;;;;;12.68;8.30;;;;;;;4.35;90.35;100797.06;5062859;28;20049;-67
2020/12/26 07:54:24;;;;;;;12.75;8.30;;;;;;;4.25;89.30;100790.56;5060250;28;20020;-66
2020/12/26 07:56:54;;;;;;;16.58;8.57;;;;;;;4.36;89.76;100809.44;5053715;28;20401;-66
2020/12/26 07:59:20;;;;;;;16.85;8.52;;;;;;;4.27;89.51;100809.91;5065741;28;20120;-66
2020/12/26 08:01:49;;;;;;;12.88;8.60;;;;;;;4.38;89.35;100844.69;5054799;28;20040;-67
2020/12/26 08:04:14;;;;;;;15.50;9.07;;;;;;;4.42;89.24;100872.81;5061408;28;20032;-66
2020/12/26 08:06:42;;;;;;;14.75;9.27;;;;;;;4.40;89.02;100878.22;5056545;28;20053;-66
2020/12/26 08:09:08;;;;;;;13.73;8.68;;;;;;;4.44;89.77;100873.59;5057205;28;20063;-67
2020/12/26 08:11:34;;;;;;;17.13;9.43;;;;;;;4.45;89.13;100865.53;5056222;28;20044;-66
2020/12/26 08:14:00;;;;;;;15.50;9.57;;;;;;;4.43;89.17;100842.66;5064497;28;20028;-66
2020/12/26 08:16:26;;;;;;;18.50;10.90;;;;;;;4.35;89.14;100827.16;5051083;28;20187;-67
2020/12/26 08:18:51;;;;;;;24.88;14.90;;;;;;;4.44;88.94;100839.06;5061352;28;20148;-66
2020/12/26 08:21:21;;;;;;;32.65;17.00;;;;;;;4.38;88.66;100842.03;5054030;28;20041;-68
2020/12/26 08:24:01;;;;;;;19.02;12.82;;;;;;;4.45;88.76;100856.72;5029982;28;20420;-67
2020/12/26 08:26:28;;;;;;;16.67;10.27;;;;;;;4.44;89.31;100857.66;5057518;28;20040;-66
2020/12/26 08:28:59;;;;;;;17.73;9.50;;;;;;;4.52;89.06;100866.06;5062899;28;20072;-67
2020/12/26 08:31:26;;;;;;;16.00;9.20;;;;;;;4.37;89.00;100854.47;5057888;28;20045;-66
2020/12/26 08:34:13;;;;;;;15.90;9.88;;;;;;;4.54;89.08;100882.75;5062991;28;20509;-66
2020/12/26 08:36:45;;;;;;;16.20;9.65;;;;;;;4.52;88.95;100879.34;5050816;28;20052;-67
2020/12/26 08:39:10;;;;;;;17.67;10.32;;;;;;;4.61;88.29;100863.75;5060303;28;20025;-66
2020/12/26 08:41:41;;;;;;;29.70;15.13;;;;;;;4.70;87.86;100871.22;5050889;28;20654;-67
2020/12/26 08:44:10;;;;;;;25.17;12.50;;;;;;;4.64;87.58;100868.91;5065042;28;20522;-67
2020/12/26 08:46:47;;;;;;;20.98;12.68;;;;;;;4.68;87.64;100885.56;5046000;28;20049;-66
2020/12/26 08:49:13;;;;;;;24.35;18.05;;;;;;;4.78;87.40;100900.03;5036789;28;20497;-67
2020/12/26 08:51:41;;;;;;;18.10;11.70;;;;;;;4.74;86.97;100885.19;5060026;28;20506;-67
2020/12/26 08:54:19;;;;;;;17.27;10.65;;;;;;;4.78;87.08;100912.47;5066043;28;20031;-67
2020/12/26 08:56:45;;;;;;;178.18;89.30;;;;;;;4.84;87.26;100923.63;5038870;28;20762;-67
2020/12/26 08:59:12;;;;;;;117.00;65.63;;;;;;;4.79;86.23;100904.41;5056990;28;20659;-67
2020/12/26 09:01:38;;;;;;;116.75;64.10;;;;;;;4.89;86.32;100920.69;5064076;28;20465;-67
2020/12/26 09:04:04;;;;;;;143.65;78.53;;;;;;;4.92;85.88;100916.06;5060969;28;20028;-67
2020/12/26 09:06:31;;;;;;;27.98;16.70;;;;;;;4.83;85.96;100900.63;5051171;28;20048;-66
2020/12/26 09:08:56;;;;;;;103.85;49.67;;;;;;;4.89;86.56;100902.94;5065767;28;20037;-66
2020/12/26 09:11:32;;;;;;;142.80;62.35;;;;;;;4.87;87.01;100902.16;5060756;28;20101;-66
2020/12/26 09:13:57;;;;;;;308.02;134.75;;;;;;;4.93;86.87;100901.84;5038206;28;20040;-67
2020/12/26 09:16:27;;;;;;;118.30;54.17;;;;;;;4.92;86.81;100889.50;5062531;28;20100;-66
2020/12/26 09:18:52;;;;;;;38.17;20.42;;;;;;;4.84;87.06;100881.13;5048774;28;20041;-67
2020/12/26 09:21:23;;;;;;;24.80;14.13;;;;;;;4.91;86.82;100881.63;5047340;28;20465;-67
2020/12/26 09:23:50;;;;;;;18.02;10.68;;;;;;;4.93;86.99;100885.88;5046178;28;20056;-66
2020/12/26 09:26:16;;;;;;;21.25;11.05;;;;;;;4.93;86.11;100867.28;5046400;28;20489;-66
2020/12/26 09:28:55;;;;;;;17.10;10.15;;;;;;;4.85;84.81;100850.94;5051103;28;20481;-67
2020/12/26 09:31:27;;;;;;;15.90;8.80;;;;;;;4.98;84.38;100865.25;5059445;28;20064;-66
2020/12/26 09:33:54;;;;;;;16.85;9.73;;;;;;;4.95;83.20;100854.78;5054174;28;20045;-67
2020/12/26 09:36:22;;;;;;;20.67;10.68;;;;;;;4.97;83.62;100842.28;5051530;28;20029;-66
2020/12/26 09:38:49;;;;;;;11.05;6.80;;;;;;;4.99;80.08;100843.03;5052149;28;20041;-67
2020/12/26 09:41:19;;;;;;;11.63;7.03;;;;;;;4.91;78.84;100813.38;5030946;28;20469;-66
2020/12/26 09:43:47;;;;;;;10.40;7.40;;;;;;;5.00;79.25;100833.25;5053287;28;20501;-67
2020/12/26 09:46:13;;;;;;;23.50;11.75;;;;;;;5.06;79.53;100855.00;5053371;28;20024;-67
2020/12/26 09:48:39;;;;;;;14.57;8.38;;;;;;;5.08;78.43;100869.09;5050678;28;20044;-67
2020/12/26 09:51:10;;;;;;;12.32;7.95;;;;;;;5.04;76.58;100878.19;5051424;28;20032;-66
2020/12/26 09:53:35;;;;;;;29.55;13.85;;;;;;;5.09;77.06;100885.91;5050947;28;20047;-66
2020/12/26 09:56:01;;;;;;;23.42;11.57;;;;;;;5.16;77.37;100903.22;5051242;28;20025;-66
2020/12/26 09:58:26;;;;;;;25.52;13.35;;;;;;;5.07;76.85;100878.03;5053221;28;20060;-66
2020/12/26 10:00:51;;;;;;;19.98;12.55;;;;;;;5.09;74.56;100886.75;5054069;28;20078;-66
2020/12/26 10:03:17;;;;;;;15.23;9.48;;;;;;;5.22;74.35;100900.22;5050721;28;20052;-66
2020/12/26 10:05:42;;;;;;;14.95;9.13;;;;;;;5.14;73.41;100905.97;5049130;28;20044;-66
2020/12/26 10:08:08;;;;;;;10.52;6.82;;;;;;;5.20;72.42;100936.66;5050576;28;20044;-66
2020/12/26 10:10:33;;;;;;;9.10;5.97;;;;;;;5.09;73.02;100916.00;5050651;28;20136;-66
2020/12/26 10:12:59;;;;;;;8.10;5.75;;;;;;;5.13;72.90;100929.97;5052007;28;20044;-66
2020/12/26 10:15:24;;;;;;;9.95;6.57;;;;;;;5.06;72.74;100926.78;5050985;28;20028;-65
2020/12/26 10:17:50;;;;;;;8.82;6.05;;;;;;;5.11;73.53;100934.50;5051583;28;20052;-66
2020/12/26 10:20:16;;;;;;;14.45;8.07;;;;;;;5.18;74.22;100941.19;5051681;28;20040;-66
2020/12/26 10:22:41;;;;;;;16.02;9.23;;;;;;;5.16;74.73;100941.28;5050508;28;20021;-66
2020/12/26 10:25:06;;;;;;;14.73;8.30;;;;;;;5.15;74.83;100942.25;5051135;28;20025;-66
2020/12/26 10:27:32;;;;;;;18.45;8.57;;;;;;;5.18;74.71;100935.88;5050738;28;20032;-67
2020/12/26 10:29:57;;;;;;;15.60;8.05;;;;;;;5.18;74.74;100927.91;5032650;28;20374;-66
2020/12/26 10:32:23;;;;;;;20.98;10.23;;;;;;;5.05;74.40;100910.94;5049808;28;20121;-66
2020/12/26 10:34:48;;;;;;;19.98;9.98;;;;;;;5.18;74.34;100933.22;5051044;28;20625;-67
2020/12/26 10:37:16;;;;;;;17.98;10.00;;;;;;;5.05;74.88;100914.44;5050951;28;20082;-66
2020/12/26 10:39:42;;;;;;;12.57;7.20;;;;;;;5.04;74.10;100906.56;5052343;28;20443;-66
2020/12/26 10:42:08;;;;;;;10.98;7.22;;;;;;;5.09;74.42;100910.66;5071319;28;20033;-66
2020/12/26 10:44:33;;;;;;;11.32;7.25;;;;;;;5.13;74.41;100922.00;5070281;28;20081;-66
2020/12/26 10:46:59;;;;;;;10.18;6.63;;;;;;;5.06;74.88;100918.81;5071127;28;20008;-67
2020/12/26 10:49:24;;;;;;;12.18;6.70;;;;;;;5.07;74.81;100936.50;5070532;28;20060;-66
2020/12/26 10:51:49;;;;;;;13.07;7.22;;;;;;;5.03;74.84;100937.59;5046899;28;20034;-66
2020/12/26 10:54:15;;;;;;;9.40;6.85;;;;;;;5.05;74.30;100938.38;5058658;28;20115;-67
2020/12/26 10:56:50;;;;;;;9.13;6.95;;;;;;;5.06;74.13;100955.19;5052029;28;20025;-66
2020/12/26 10:59:16;;;;;;;13.13;8.73;;;;;;;5.10;74.65;100960.25;5070480;28;20055;-67
2020/12/26 11:01:41;;;;;;;17.02;9.82;;;;;;;5.12;74.92;100957.53;5067145;28;20032;-67
2020/12/26 11:04:07;;;;;;;11.52;7.80;;;;;;;5.11;74.85;100956.66;5050687;28;20041;-67
2020/12/26 11:06:33;;;;;;;26.70;12.57;;;;;;;5.16;75.13;100962.56;5050115;28;20473;-66
2020/12/26 11:08:59;;;;;;;12.88;7.97;;;;;;;5.15;74.18;100966.16;5031179;28;20389;-67
2020/12/26 11:11:24;;;;;;;10.57;6.78;;;;;;;5.17;74.01;100963.44;5050090;28;20029;-66
2020/12/26 11:13:51;;;;;;;14.02;8.27;;;;;;;5.21;74.29;100957.84;5050287;28;20544;-67
2020/12/26 11:16:17;;;;;;;25.83;11.82;;;;;;;5.23;73.98;100958.63;5068829;28;20020;-67
2020/12/26 11:18:44;;;;;;;20.75;10.82;;;;;;;5.21;73.90;100960.50;5051861;28;20044;-67